Thursday, January 18, 2018, 12:11 AM GMT
Back to Local

CXMY, Malay Falls , N. S.

Location: , , Canada Lat: 44.983
Local Time: 12:11 AM GMT ( 0:11 GMT) Lon: -62.483
Time Zone: GMT Elev: 131 ft

Show me the last for .
Show Coded

Time T Td Feel RH Dir Speed Gust Alt SLP Vis Weather Sky Remarks
2018-01-17 23:00 29 29 - 100 - - - - - 0 1-hr Precip Total: 0.04"
2018-01-17 22:00 28 28 - 99 - - - - - 0 1-hr Precip Total: 0.07"
2018-01-17 21:00 28 28 - 99 - - - - - 0 None
2018-01-17 20:00 28 28 - 98 - - - - - 0 1-hr Precip Total: 0.03"
2018-01-17 19:00 28 29 - 105 - - - - - 0 None
2018-01-17 18:00 28 27 - 97 - - - - - 0 1-hr Precip Total: 0.03"
2018-01-17 17:00 28 27 - 94 - - - - - 0 1-hr Precip Total: 0.02"
2018-01-17 16:00 27 26 - 94 - - - - - 0 1-hr Precip Total: 0.04"
2018-01-17 15:00 26 25 - 94 - - - - - 0 None
2018-01-17 14:00 25 24 - 96 - - - - - 0 1-hr Precip Total: 0.04"
2018-01-17 13:00 23 22 - 97 - - - - - 0 None
2018-01-17 12:00 22 21 - 97 - - - - - 0 None
2018-01-17 11:00 21 21 - 98 - - - - - 0 None
2018-01-17 10:00 21 22 - 106 - - - - - 0 None
2018-01-17 09:00 20 20 - 98 - - - - - 0 None
2018-01-17 08:00 21 20 - 98 - - - - - 0 None
2018-01-17 07:00 20 20 - 98 - - - - - 0 None
2018-01-17 06:00 22 21 - 96 - - - - - 0 None
2018-01-17 05:00 24 23 - 97 - - - - - 0 None
2018-01-17 04:00 25 26 - 102 - - - - - 0 None
2018-01-17 03:00 25 24 - 95 - - - - - 0 None
2018-01-17 02:00 25 26 - 101 - - - - - 0 None
2018-01-17 01:00 26 24 - 92 - - - - - 0 None

Support USWX by starting your Amazon purchase here.